createdAt,value
2023-01-31T00:01:51.297Z,3.52
2023-01-31T00:04:20.912Z,3.48
2023-01-31T00:06:52.180Z,3.31
2023-01-31T00:09:22.507Z,3.21
2023-01-31T00:11:53.640Z,3.25
2023-01-31T00:14:25.048Z,3.15
2023-01-31T00:16:55.398Z,3.20
2023-01-31T00:19:25.140Z,3.25
2023-01-31T00:21:55.699Z,3.13
2023-01-31T00:24:25.340Z,2.94
2023-01-31T00:26:58.939Z,3.12
2023-01-31T00:29:29.039Z,3.13
2023-01-31T00:32:01.204Z,3.06
2023-01-31T00:34:31.101Z,2.83
2023-01-31T00:37:00.725Z,3.12
2023-01-31T00:39:30.709Z,3.28
2023-01-31T00:42:01.540Z,3.20
2023-01-31T00:44:30.956Z,3.12
2023-01-31T00:47:00.832Z,3.14
2023-01-31T00:49:30.307Z,3.27
2023-01-31T00:52:00.271Z,3.06
2023-01-31T00:54:29.637Z,3.29
2023-01-31T00:57:01.092Z,3.36
2023-01-31T00:59:30.713Z,3.32
2023-01-31T01:02:00.464Z,3.45
2023-01-31T01:04:32.071Z,2.23
2023-01-31T01:07:01.666Z,3.39
2023-01-31T01:09:31.316Z,3.33
2023-01-31T01:12:02.954Z,3.27
2023-01-31T01:14:33.126Z,3.16
2023-01-31T01:17:02.802Z,3.22
2023-01-31T01:19:34.960Z,3.21
2023-01-31T01:22:07.512Z,3.26
2023-01-31T01:24:38.376Z,3.18
2023-01-31T01:27:09.695Z,3.18
2023-01-31T01:29:42.595Z,3.14
2023-01-31T01:32:12.512Z,2.89
2023-01-31T01:34:41.832Z,3.09
2023-01-31T01:37:20.265Z,3.10
2023-01-31T01:39:50.081Z,2.94
2023-01-31T01:42:25.739Z,3.14
2023-01-31T01:44:56.904Z,3.16
2023-01-31T01:47:39.466Z,3.12
2023-01-31T01:50:13.555Z,3.16
2023-01-31T01:52:47.209Z,2.73
2023-01-31T01:55:22.850Z,3.13
2023-01-31T01:57:57.444Z,3.14
2023-01-31T02:00:32.186Z,2.96
2023-01-31T02:03:04.929Z,2.97
2023-01-31T02:05:38.164Z,3.24
2023-01-31T02:08:08.055Z,3.30
2023-01-31T02:10:43.583Z,3.31
2023-01-31T02:13:15.917Z,3.34
2023-01-31T02:15:47.947Z,3.40
2023-01-31T02:18:18.542Z,3.35
2023-01-31T02:21:21.339Z,3.29
2023-01-31T02:24:20.643Z,3.50
2023-01-31T02:27:15.700Z,3.52
2023-01-31T02:30:18.114Z,3.66
2023-01-31T02:33:02.921Z,3.65
2023-01-31T02:35:44.863Z,3.71
2023-01-31T02:38:27.229Z,3.79
2023-01-31T02:41:10.033Z,3.52
2023-01-31T02:44:05.304Z,3.71
2023-01-31T02:46:45.156Z,3.65
2023-01-31T02:49:34.834Z,3.92
2023-01-31T02:52:21.735Z,3.99
2023-01-31T02:55:27.374Z,3.85
2023-01-31T02:58:01.009Z,4.02
2023-01-31T03:00:34.879Z,4.02
2023-01-31T03:03:07.583Z,4.11
2023-01-31T03:05:38.483Z,4.02
2023-01-31T03:08:09.171Z,4.23
2023-01-31T03:11:00.846Z,4.46
2023-01-31T03:13:45.200Z,4.47
2023-01-31T03:16:43.342Z,4.43
2023-01-31T03:19:19.671Z,4.52
2023-01-31T03:21:54.265Z,4.27
2023-01-31T03:24:26.632Z,4.47
2023-01-31T03:27:00.094Z,4.29
2023-01-31T03:29:32.629Z,4.54
2023-01-31T03:32:09.086Z,4.59
2023-01-31T03:34:39.700Z,4.55
2023-01-31T03:37:18.164Z,4.23
2023-01-31T03:39:56.721Z,4.83
2023-01-31T03:42:34.935Z,4.52
2023-01-31T03:45:10.980Z,4.48
2023-01-31T03:47:42.354Z,4.54
2023-01-31T03:50:18.182Z,4.33
2023-01-31T03:52:57.320Z,4.48
2023-01-31T03:55:34.732Z,4.37
2023-01-31T03:58:06.985Z,4.49
2023-01-31T04:00:40.577Z,4.47
2023-01-31T04:03:17.239Z,4.28
2023-01-31T04:05:49.159Z,4.41
2023-01-31T04:08:21.227Z,4.55
2023-01-31T04:19:05.900Z,4.24
2023-01-31T04:21:34.849Z,4.24
2023-01-31T04:24:07.320Z,3.95
2023-01-31T04:26:38.874Z,4.53
2023-01-31T04:29:10.024Z,4.38
2023-01-31T04:31:41.613Z,4.47
2023-01-31T04:34:12.603Z,3.21
2023-01-31T04:36:43.074Z,4.59
2023-01-31T04:39:16.296Z,4.38
2023-01-31T04:41:47.364Z,4.47
2023-01-31T04:44:17.399Z,4.66
2023-01-31T04:46:48.244Z,4.70
2023-01-31T04:49:18.436Z,4.65
2023-01-31T04:51:47.740Z,3.39
2023-01-31T04:54:19.014Z,4.45
2023-01-31T04:56:48.817Z,4.85
2023-01-31T04:59:18.878Z,4.76
2023-01-31T05:01:48.754Z,4.83
2023-01-31T05:04:19.104Z,4.77
2023-01-31T05:06:50.394Z,4.62
2023-01-31T05:09:22.837Z,4.61
2023-01-31T05:11:52.682Z,4.62
2023-01-31T05:14:22.500Z,4.54
2023-01-31T05:16:57.764Z,4.53
2023-01-31T05:19:27.658Z,3.16
2023-01-31T05:21:59.237Z,4.58
2023-01-31T05:24:31.832Z,4.71
2023-01-31T05:27:03.400Z,4.73
2023-01-31T05:29:35.918Z,4.62
2023-01-31T05:32:07.415Z,4.60
2023-01-31T05:34:37.333Z,4.77
2023-01-31T05:37:07.725Z,4.64
2023-01-31T05:39:38.870Z,4.55
2023-01-31T05:42:08.857Z,4.49
2023-01-31T05:44:38.502Z,4.68
2023-01-31T05:47:08.300Z,4.69
2023-01-31T05:49:38.004Z,5.02
2023-01-31T05:52:07.359Z,4.77
2023-01-31T05:54:40.225Z,5.00
2023-01-31T05:57:09.631Z,5.07
2023-01-31T05:59:40.937Z,5.20
2023-01-31T06:02:11.540Z,5.02
2023-01-31T06:04:40.983Z,5.18
2023-01-31T06:07:09.920Z,4.92
2023-01-31T06:09:40.741Z,5.08
2023-01-31T06:12:14.642Z,5.26
2023-01-31T06:14:44.674Z,5.34
2023-01-31T06:17:14.566Z,5.23
2023-01-31T06:19:43.931Z,5.33
2023-01-31T06:22:13.853Z,5.28
2023-01-31T06:24:44.792Z,5.40
2023-01-31T06:27:15.018Z,5.44
2023-01-31T06:29:44.654Z,5.33
2023-01-31T06:32:14.237Z,5.10
2023-01-31T06:34:43.947Z,5.36
2023-01-31T06:37:13.618Z,5.36
2023-01-31T06:39:44.416Z,5.44
2023-01-31T06:42:13.942Z,5.48
2023-01-31T06:44:43.257Z,5.46
2023-01-31T06:47:14.782Z,5.50
2023-01-31T06:49:44.122Z,5.66
2023-01-31T06:52:15.084Z,5.51
2023-01-31T06:54:46.192Z,5.46
2023-01-31T06:57:15.788Z,5.60
2023-01-31T06:59:45.443Z,5.75
2023-01-31T07:02:17.113Z,5.69
2023-01-31T07:04:48.899Z,5.67
2023-01-31T07:07:21.389Z,5.73
2023-01-31T07:09:52.407Z,5.75
2023-01-31T07:12:22.362Z,5.89
2023-01-31T07:14:52.434Z,5.81
2023-01-31T07:17:22.433Z,5.56
2023-01-31T07:19:52.580Z,5.58
2023-01-31T07:22:22.195Z,5.73
2023-01-31T07:24:53.326Z,5.68
2023-01-31T07:27:24.455Z,5.69
2023-01-31T07:29:54.487Z,5.71
2023-01-31T07:32:24.226Z,5.82
2023-01-31T07:34:54.032Z,5.73
2023-01-31T07:37:23.487Z,5.73
2023-01-31T07:39:54.338Z,5.62
2023-01-31T07:42:24.181Z,5.53
2023-01-31T07:44:53.708Z,5.63
2023-01-31T07:47:23.098Z,5.65
2023-01-31T07:49:52.712Z,5.72
2023-01-31T07:52:22.366Z,5.74
2023-01-31T07:54:53.654Z,5.71
2023-01-31T07:57:23.128Z,5.61
2023-01-31T07:59:52.693Z,5.92
2023-01-31T08:02:40.104Z,5.86
2023-01-31T08:05:11.308Z,5.64
2023-01-31T08:07:41.241Z,5.85
2023-01-31T08:10:17.429Z,5.87
2023-01-31T08:12:49.920Z,5.76
2023-01-31T08:15:19.966Z,5.77
2023-01-31T08:17:50.058Z,5.77
2023-01-31T08:20:19.628Z,5.63
2023-01-31T08:22:48.957Z,5.41
2023-01-31T08:25:20.680Z,5.46
2023-01-31T08:27:50.616Z,5.52
2023-01-31T08:30:20.922Z,5.33
2023-01-31T08:32:50.619Z,5.35
2023-01-31T08:35:23.096Z,5.51
2023-01-31T08:37:54.161Z,5.52
2023-01-31T08:40:28.229Z,5.28
2023-01-31T08:42:58.578Z,5.60
2023-01-31T08:45:28.312Z,4.35
2023-01-31T08:47:59.904Z,5.60
2023-01-31T08:50:31.440Z,4.24
2023-01-31T08:53:03.665Z,5.58
2023-01-31T08:55:38.008Z,5.57
2023-01-31T08:58:08.510Z,5.36
2023-01-31T09:00:38.348Z,5.95
2023-01-31T09:03:08.104Z,5.72
2023-01-31T09:05:37.910Z,5.71
2023-01-31T09:08:07.587Z,5.64
2023-01-31T09:10:38.271Z,5.68
2023-01-31T09:13:08.536Z,5.76
2023-01-31T09:15:37.769Z,5.81
2023-01-31T09:18:07.546Z,5.81
2023-01-31T09:20:39.341Z,5.92
2023-01-31T09:23:09.448Z,4.90
2023-01-31T09:25:47.244Z,6.00
2023-01-31T09:28:17.683Z,6.16
2023-01-31T09:30:47.742Z,5.89
2023-01-31T09:33:17.566Z,5.99
2023-01-31T09:35:58.032Z,5.98
2023-01-31T09:38:28.548Z,6.29
2023-01-31T09:41:03.056Z,6.55
2023-01-31T09:43:40.411Z,6.60
2023-01-31T09:46:16.825Z,6.60
2023-01-31T09:48:51.876Z,6.49
2023-01-31T09:51:22.431Z,6.60
2023-01-31T09:53:52.054Z,6.58
2023-01-31T09:56:35.791Z,6.54
2023-01-31T09:59:16.230Z,6.71
2023-01-31T10:01:53.577Z,6.82
2023-01-31T10:04:41.044Z,6.83
2023-01-31T10:07:17.797Z,6.68
2023-01-31T10:09:55.266Z,6.77
2023-01-31T10:12:34.749Z,6.77
2023-01-31T10:15:07.890Z,6.82
2023-01-31T10:17:42.397Z,6.75
2023-01-31T10:20:21.165Z,6.76
2023-01-31T10:22:59.755Z,7.04
2023-01-31T10:25:34.396Z,7.01
2023-01-31T10:28:11.763Z,6.94
2023-01-31T10:30:47.196Z,7.08
2023-01-31T10:33:27.096Z,6.82
2023-01-31T10:36:02.704Z,6.96
2023-01-31T10:38:35.688Z,7.27
2023-01-31T10:41:15.226Z,7.24
2023-01-31T10:43:53.860Z,7.19
2023-01-31T10:46:23.580Z,7.16
2023-01-31T10:48:53.170Z,7.11
2023-01-31T10:51:41.961Z,7.06
2023-01-31T10:54:23.262Z,6.79
2023-01-31T10:56:53.034Z,6.99
2023-01-31T10:59:27.410Z,7.26
2023-01-31T11:01:57.391Z,7.02
2023-01-31T11:04:31.155Z,7.06
2023-01-31T11:07:02.726Z,6.99
2023-01-31T11:09:35.510Z,6.91
2023-01-31T11:12:08.666Z,7.34
2023-01-31T11:14:39.421Z,7.14
2023-01-31T11:17:14.193Z,7.36
2023-01-31T11:19:48.197Z,7.40
2023-01-31T11:22:26.067Z,7.43
2023-01-31T11:24:57.547Z,7.42
2023-01-31T11:27:38.139Z,7.38
2023-01-31T11:30:23.291Z,7.32
2023-01-31T11:32:53.680Z,7.37
2023-01-31T11:35:26.802Z,7.38
2023-01-31T11:38:00.777Z,7.51
2023-01-31T11:40:33.132Z,7.09
2023-01-31T11:43:04.940Z,7.41
2023-01-31T11:45:38.406Z,7.33
2023-01-31T11:48:12.381Z,7.51
2023-01-31T11:50:47.250Z,7.41
2023-01-31T11:53:20.619Z,7.46
2023-01-31T11:55:50.931Z,7.46
2023-01-31T11:58:25.836Z,7.55
2023-01-31T12:00:59.760Z,7.41
2023-01-31T12:03:31.021Z,6.97
2023-01-31T12:06:05.426Z,7.42
2023-01-31T12:08:37.636Z,7.55
2023-01-31T12:11:19.004Z,7.46
2023-01-31T12:13:50.231Z,7.34
2023-01-31T12:16:23.158Z,7.29
2023-01-31T12:19:08.079Z,7.58
2023-01-31T12:21:50.576Z,7.47
2023-01-31T12:24:34.998Z,7.40
2023-01-31T12:27:14.703Z,7.63
2023-01-31T12:30:16.951Z,7.64
2023-01-31T12:33:03.360Z,7.72
2023-01-31T12:35:44.210Z,7.76
2023-01-31T12:38:34.266Z,7.89
2023-01-31T12:41:18.458Z,7.93
2023-01-31T12:44:04.156Z,7.84
2023-01-31T12:46:41.153Z,7.98
2023-01-31T12:49:48.472Z,7.99
2023-01-31T12:52:25.231Z,7.94
2023-01-31T12:55:08.286Z,8.03
2023-01-31T12:57:49.656Z,6.95
2023-01-31T13:00:36.336Z,7.95
2023-01-31T13:03:39.118Z,8.08
2023-01-31T13:06:15.682Z,8.04
2023-01-31T13:09:06.796Z,8.22
2023-01-31T13:11:42.466Z,8.11
2023-01-31T13:14:17.114Z,8.41
2023-01-31T13:16:49.552Z,8.25
2023-01-31T13:19:24.896Z,8.21
2023-01-31T13:21:59.216Z,8.44
2023-01-31T13:24:34.436Z,8.47
2023-01-31T13:27:10.066Z,8.43
2023-01-31T13:29:44.931Z,8.28
2023-01-31T13:32:23.512Z,8.30
2023-01-31T13:34:59.300Z,8.43
2023-01-31T13:37:32.781Z,8.49
2023-01-31T13:40:04.300Z,8.55
2023-01-31T13:42:34.172Z,8.57
2023-01-31T13:45:07.961Z,8.33
2023-01-31T13:47:44.110Z,8.46
2023-01-31T13:50:35.268Z,7.22
2023-01-31T13:53:08.653Z,8.50
2023-01-31T13:55:39.668Z,8.63
2023-01-31T13:58:16.972Z,8.62
2023-01-31T14:00:48.611Z,8.72
2023-01-31T14:03:20.898Z,8.75
2023-01-31T14:05:57.333Z,8.72
2023-01-31T14:08:40.106Z,8.69
2023-01-31T14:11:36.911Z,8.74
2023-01-31T14:14:21.137Z,9.01
2023-01-31T14:16:53.057Z,8.96
2023-01-31T14:19:53.455Z,8.84
2023-01-31T14:22:24.602Z,8.84
2023-01-31T14:25:01.433Z,8.60
2023-01-31T14:27:34.471Z,8.64
2023-01-31T14:30:24.451Z,8.75
2023-01-31T14:33:09.391Z,8.80
2023-01-31T14:36:19.873Z,8.71
2023-01-31T14:39:09.340Z,8.67
2023-01-31T14:41:56.444Z,8.60
2023-01-31T14:44:39.684Z,8.80
2023-01-31T14:47:25.851Z,7.58
2023-01-31T14:50:15.307Z,8.77
2023-01-31T14:53:02.265Z,8.68
2023-01-31T14:55:46.404Z,8.72
2023-01-31T14:58:21.949Z,8.70
2023-01-31T15:00:54.814Z,8.56
2023-01-31T15:03:27.611Z,8.62
2023-01-31T15:06:07.512Z,8.57
2023-01-31T15:08:43.057Z,8.74
2023-01-31T15:11:42.029Z,8.63
2023-01-31T15:14:41.448Z,8.56
2023-01-31T15:17:33.642Z,8.62
2023-01-31T15:20:16.179Z,8.17
2023-01-31T15:22:46.971Z,8.34
2023-01-31T15:25:28.373Z,8.47
2023-01-31T15:27:59.081Z,8.58
2023-01-31T15:30:34.281Z,7.70
2023-01-31T15:33:09.984Z,8.57
2023-01-31T15:35:51.082Z,8.03
2023-01-31T15:38:29.511Z,8.45
2023-01-31T15:41:18.073Z,8.38
2023-01-31T15:43:48.037Z,8.42
2023-01-31T15:46:26.017Z,8.05
2023-01-31T15:48:55.824Z,8.25
2023-01-31T15:51:26.017Z,8.27
2023-01-31T15:54:03.360Z,8.21
2023-01-31T15:56:35.133Z,8.16
2023-01-31T15:59:11.771Z,8.18
2023-01-31T16:01:49.245Z,8.10
2023-01-31T16:04:19.539Z,7.94
2023-01-31T16:06:49.946Z,7.90
2023-01-31T16:09:28.712Z,7.75
2023-01-31T16:12:00.536Z,7.83
2023-01-31T16:14:37.226Z,7.94
2023-01-31T16:17:10.922Z,7.91
2023-01-31T16:19:40.835Z,7.90
2023-01-31T16:22:26.029Z,8.02
2023-01-31T16:24:58.131Z,8.08
2023-01-31T16:27:30.886Z,7.93
2023-01-31T16:30:03.445Z,7.90
2023-01-31T16:32:38.211Z,7.72
2023-01-31T16:35:10.739Z,7.96
2023-01-31T16:37:42.218Z,7.81
2023-01-31T16:40:22.786Z,7.83
2023-01-31T16:43:10.221Z,7.77
2023-01-31T16:45:51.153Z,7.82
2023-01-31T16:48:28.479Z,7.81
2023-01-31T16:51:00.112Z,7.66
2023-01-31T16:53:33.066Z,7.68
2023-01-31T16:56:23.544Z,7.39
2023-01-31T16:58:55.446Z,7.70
2023-01-31T17:01:28.232Z,7.44
2023-01-31T17:04:18.514Z,7.32
2023-01-31T17:06:52.330Z,7.53
2023-01-31T17:09:24.072Z,7.39
2023-01-31T17:11:56.002Z,7.35
2023-01-31T17:14:25.664Z,7.31
2023-01-31T17:16:55.494Z,7.48
2023-01-31T17:19:26.407Z,7.34
2023-01-31T17:21:56.950Z,7.45
2023-01-31T17:24:26.787Z,7.41
2023-01-31T17:26:56.990Z,7.20
2023-01-31T17:29:27.614Z,7.37
2023-01-31T17:31:58.117Z,7.30
2023-01-31T17:34:28.750Z,7.34
2023-01-31T17:36:58.468Z,7.15
2023-01-31T17:39:27.363Z,7.15
2023-01-31T17:42:00.020Z,7.22
2023-01-31T17:44:29.165Z,7.18
2023-01-31T17:46:59.515Z,7.17
2023-01-31T17:49:30.809Z,7.07
2023-01-31T17:52:01.090Z,7.03
2023-01-31T17:54:30.627Z,6.98
2023-01-31T17:57:02.691Z,7.11
2023-01-31T17:59:32.921Z,7.08
2023-01-31T18:02:03.733Z,7.11
2023-01-31T18:04:34.594Z,7.07
2023-01-31T18:07:04.935Z,7.10
2023-01-31T18:09:34.825Z,6.97
2023-01-31T18:12:07.614Z,6.96
2023-01-31T18:14:37.534Z,6.99
2023-01-31T18:17:07.785Z,6.96
2023-01-31T18:19:39.349Z,6.84
2023-01-31T18:22:09.550Z,6.85
2023-01-31T18:24:38.724Z,5.79
2023-01-31T18:27:08.644Z,6.94
2023-01-31T18:29:37.967Z,6.89
2023-01-31T18:32:09.903Z,6.69
2023-01-31T18:34:41.138Z,6.85
2023-01-31T18:37:19.229Z,6.74
2023-01-31T18:39:52.566Z,6.86
2023-01-31T18:42:22.791Z,6.89
2023-01-31T18:44:52.675Z,6.88
2023-01-31T18:47:23.345Z,6.75
2023-01-31T18:49:55.390Z,6.84
2023-01-31T18:52:25.261Z,6.81
2023-01-31T18:54:56.026Z,6.88
2023-01-31T18:57:26.039Z,6.83
2023-01-31T18:59:55.959Z,6.68
2023-01-31T19:02:25.747Z,6.81
2023-01-31T19:04:59.585Z,6.78
2023-01-31T19:07:29.346Z,6.72
2023-01-31T19:09:59.179Z,6.72
2023-01-31T19:12:28.774Z,6.73
2023-01-31T19:14:58.591Z,6.74
2023-01-31T19:17:28.651Z,6.51
2023-01-31T19:19:59.582Z,6.79
2023-01-31T19:22:29.307Z,6.38
2023-01-31T19:24:59.067Z,6.61
2023-01-31T19:27:28.517Z,6.65
2023-01-31T19:29:58.696Z,6.69
2023-01-31T19:32:30.387Z,6.46
2023-01-31T19:35:03.058Z,5.60
2023-01-31T19:37:32.865Z,6.46
2023-01-31T19:40:02.568Z,6.13
2023-01-31T19:42:32.561Z,6.64
2023-01-31T19:45:02.207Z,6.38
2023-01-31T19:47:32.023Z,6.32
2023-01-31T19:50:03.100Z,6.62
2023-01-31T19:52:32.934Z,6.47
2023-01-31T19:55:02.598Z,6.49
2023-01-31T19:57:32.940Z,6.58
2023-01-31T20:00:02.829Z,6.50
2023-01-31T20:02:43.202Z,6.39
2023-01-31T20:05:14.982Z,6.54
2023-01-31T20:07:44.903Z,6.49
2023-01-31T20:10:15.212Z,6.50
2023-01-31T20:12:45.847Z,6.39
2023-01-31T20:15:15.057Z,6.55
2023-01-31T20:17:44.652Z,6.53
2023-01-31T20:20:15.355Z,6.48
2023-01-31T20:22:44.668Z,6.32
2023-01-31T20:25:14.263Z,6.44
2023-01-31T20:27:43.561Z,6.47
2023-01-31T20:30:13.895Z,6.46
2023-01-31T20:32:43.498Z,6.46
2023-01-31T20:35:14.474Z,6.36
2023-01-31T20:37:47.350Z,6.49
2023-01-31T20:40:17.360Z,6.45
2023-01-31T20:42:46.949Z,6.40
2023-01-31T20:45:16.251Z,6.20
2023-01-31T20:47:46.158Z,6.37
2023-01-31T20:50:17.753Z,6.37
2023-01-31T20:52:47.561Z,5.23
2023-01-31T20:55:17.573Z,6.17
2023-01-31T20:57:50.031Z,6.43
2023-01-31T21:00:23.921Z,6.38
2023-01-31T21:02:53.383Z,6.20
2023-01-31T21:05:26.727Z,6.27
2023-01-31T21:07:56.034Z,6.28
2023-01-31T21:10:28.852Z,6.26
2023-01-31T21:12:58.441Z,6.20
2023-01-31T21:15:28.850Z,6.33
2023-01-31T21:17:58.550Z,6.31
2023-01-31T21:20:29.333Z,6.25
2023-01-31T21:22:59.348Z,6.11
2023-01-31T21:25:31.391Z,6.33
2023-01-31T21:28:00.840Z,6.27
2023-01-31T21:30:29.971Z,6.27
2023-01-31T21:32:59.282Z,6.21
2023-01-31T21:35:29.830Z,6.11
2023-01-31T21:37:59.122Z,6.32
2023-01-31T21:40:28.214Z,5.73
2023-01-31T21:42:57.005Z,6.27
2023-01-31T21:48:32.671Z,6.16
2023-01-31T21:51:04.934Z,6.20
2023-01-31T21:53:34.444Z,6.15
2023-01-31T21:56:04.347Z,6.17
2023-01-31T21:58:33.758Z,6.17
2023-01-31T22:01:07.084Z,6.15
2023-01-31T22:03:37.880Z,6.13
2023-01-31T22:06:09.325Z,6.14
2023-01-31T22:08:38.726Z,5.85
2023-01-31T22:11:09.497Z,5.97
2023-01-31T22:13:39.379Z,5.94
2023-01-31T22:16:10.235Z,6.05
2023-01-31T22:18:42.345Z,5.79
2023-01-31T22:21:13.381Z,6.03
2023-01-31T22:23:47.007Z,5.73
2023-01-31T22:26:19.051Z,5.70
2023-01-31T22:28:49.393Z,6.06
2023-01-31T22:31:20.604Z,6.01
2023-01-31T22:33:51.868Z,5.98
2023-01-31T22:36:22.292Z,5.92
2023-01-31T22:38:51.569Z,5.95
2023-01-31T22:41:21.485Z,5.48
2023-01-31T22:43:56.119Z,6.10
2023-01-31T22:46:28.599Z,5.96
2023-01-31T22:48:59.609Z,6.05
2023-01-31T22:51:30.359Z,6.02
2023-01-31T22:54:00.535Z,5.94
2023-01-31T22:56:31.543Z,6.03
2023-01-31T22:59:05.823Z,5.99
2023-01-31T23:01:39.045Z,6.08
2023-01-31T23:04:11.921Z,5.22
2023-01-31T23:06:41.263Z,6.10
2023-01-31T23:09:11.420Z,5.95
2023-01-31T23:11:41.667Z,5.91
2023-01-31T23:14:11.239Z,6.00
2023-01-31T23:16:58.093Z,4.67
2023-01-31T23:19:28.656Z,5.95
2023-01-31T23:21:58.704Z,6.01
2023-01-31T23:24:28.462Z,6.13
2023-01-31T23:26:58.472Z,6.08
2023-01-31T23:29:28.342Z,6.17
2023-01-31T23:31:58.083Z,6.13
2023-01-31T23:34:29.184Z,6.24
2023-01-31T23:36:59.825Z,6.30
2023-01-31T23:39:29.546Z,6.31
2023-01-31T23:41:59.472Z,6.20
2023-01-31T23:44:28.897Z,6.30
2023-01-31T23:46:58.767Z,6.24
2023-01-31T23:49:29.600Z,5.34
2023-01-31T23:52:02.257Z,5.81
2023-01-31T23:54:31.277Z,6.36
2023-01-31T23:57:00.572Z,6.33
2023-01-31T23:59:30.583Z,6.24
